Time;durP1;ratioP1;P1;durP2;ratioP2;P2;SDS_P1;SDS_P2;PMS_P1;PMS_P2;Temp;Humidity;BMP_temperature;BMP_pressure;BME280_temperature;BME280_humidity;BME280_pressure;Samples;Min_cycle;Max_cycle;Signal;HPM_P1;HPM_P2
2021/09/12 00:01:59;;;;;;;42.92;20.80;;;;;;;16.78;100.00;100811.75;4812168;29;20019;-83
2021/09/12 00:04:24;;;;;;;49.75;22.17;;;;;;;16.77;100.00;100818.25;4795671;29;20103;-83
2021/09/12 00:06:50;;;;;;;54.20;23.20;;;;;;;16.00;100.00;100690.84;4811897;29;20027;-83
2021/09/12 00:09:16;;;;;;;46.00;21.77;;;;;;;16.08;100.00;100704.03;4805141;29;20019;-83
2021/09/12 00:16:52;;;;;;;54.78;24.23;;;;;;;15.92;100.00;100673.00;5533792;24;20073;-84
2021/09/12 00:19:18;;;;;;;56.75;25.35;;;;;;;16.27;100.00;100723.72;4829915;29;20065;-82
2021/09/12 00:21:44;;;;;;;47.72;23.23;;;;;;;16.38;100.00;100741.88;4829530;29;20015;-83
2021/09/12 00:24:10;;;;;;;51.50;25.45;;;;;;;16.10;100.00;100691.06;4829490;29;20058;-83
2021/09/12 00:26:36;;;;;;;46.85;24.13;;;;;;;15.89;100.00;100662.63;4829366;29;20030;-82
2021/09/12 00:29:02;;;;;;;50.15;24.58;;;;;;;16.67;100.00;100778.06;4829317;29;20023;-83
2021/09/12 00:31:28;;;;;;;49.60;24.35;;;;;;;16.35;100.00;100721.44;4814028;29;20018;-84
2021/09/12 00:33:54;;;;;;;51.53;24.15;;;;;;;16.13;100.00;100679.72;4829085;29;20022;-83
2021/09/12 00:36:21;;;;;;;46.83;23.33;;;;;;;16.48;100.00;100731.22;4813605;29;20043;-83
2021/09/12 00:38:47;;;;;;;43.38;22.83;;;;;;;16.23;100.00;100687.25;4813740;29;20057;-82
2021/09/12 00:41:12;;;;;;;49.33;23.80;;;;;;;16.72;100.00;100761.03;4828882;29;20023;-82
2021/09/12 00:43:38;;;;;;;47.00;22.80;;;;;;;16.43;100.00;100718.38;4816071;29;20035;-82
2021/09/12 00:46:07;;;;;;;43.17;22.00;;;;;;;16.04;100.00;100662.16;4830523;29;20045;-82
2021/09/12 00:48:34;;;;;;;43.63;21.25;;;;;;;16.34;100.00;100699.97;4830216;29;20031;-81
2021/09/12 00:51:00;;;;;;;45.20;21.27;;;;;;;16.73;100.00;100760.81;4797302;29;20047;-80
2021/09/12 00:53:31;;;;;;;45.03;21.20;;;;;;;16.71;100.00;100757.50;4794080;29;20031;-81
2021/09/12 00:56:00;;;;;;;42.28;19.45;;;;;;;16.61;100.00;100735.56;4815176;29;20092;-80
2021/09/12 00:58:27;;;;;;;39.00;19.92;;;;;;;16.61;100.00;100730.94;4821399;29;20090;-81
2021/09/12 01:00:53;;;;;;;38.38;19.77;;;;;;;16.76;100.00;100757.66;4827615;29;20030;-81
2021/09/12 01:03:19;;;;;;;34.65;18.10;;;;;;;16.78;100.00;100755.50;4830190;29;20031;-81
2021/09/12 01:05:45;;;;;;;37.72;18.52;;;;;;;16.78;100.00;100760.09;4830420;29;20031;-82
2021/09/12 01:08:11;;;;;;;32.13;17.40;;;;;;;16.72;100.00;100747.44;4830951;29;20046;-82
2021/09/12 01:10:37;;;;;;;38.83;18.52;;;;;;;16.75;100.00;100755.97;4831794;29;20023;-82
2021/09/12 01:13:04;;;;;;;39.92;19.55;;;;;;;16.81;100.00;100757.72;4801313;29;20019;-82
2021/09/12 01:15:30;;;;;;;42.25;20.08;;;;;;;16.82;100.00;100753.97;4801659;29;20046;-82
2021/09/12 01:17:56;;;;;;;42.28;20.33;;;;;;;16.78;100.00;100744.63;4800863;29;20098;-83
2021/09/12 01:20:23;;;;;;;41.08;21.17;;;;;;;16.82;100.00;100747.69;4814827;29;20047;-82
2021/09/12 01:25:24;;;;;;;49.40;22.30;;;;;;;16.84;100.00;100740.13;5117148;24;20047;-83
2021/09/12 01:27:50;;;;;;;44.42;23.23;;;;;;;16.42;100.00;100677.84;4814803;29;20043;-82
2021/09/12 01:30:16;;;;;;;56.42;25.42;;;;;;;16.13;100.00;100633.59;4799283;29;20044;-84
2021/09/12 01:32:41;;;;;;;53.20;25.73;;;;;;;16.36;100.00;100660.66;4798181;30;20061;-83
2021/09/12 01:35:08;;;;;;;55.97;25.90;;;;;;;16.32;100.00;100640.47;4797317;30;20042;-83
2021/09/12 01:37:35;;;;;;;60.88;27.63;;;;;;;16.30;100.00;100642.59;4796774;30;20022;-83
2021/09/12 01:40:00;;;;;;;59.50;28.88;;;;;;;16.60;100.00;100691.28;4805695;29;20066;-82
2021/09/12 01:42:26;;;;;;;61.00;28.90;;;;;;;16.28;100.00;100644.72;4809570;29;20027;-83
2021/09/12 01:44:52;;;;;;;62.13;28.80;;;;;;;16.25;100.00;100626.19;4810714;29;20031;-83
2021/09/12 01:47:18;;;;;;;67.40;30.65;;;;;;;16.18;100.00;100620.09;4814278;29;20008;-83
2021/09/12 01:49:44;;;;;;;63.97;29.73;;;;;;;16.37;100.00;100642.47;4799066;29;20052;-84
2021/09/12 01:52:14;;;;;;;69.45;30.95;;;;;;;16.63;100.00;100684.53;4812923;29;20019;-83
2021/09/12 01:54:40;;;;;;;59.45;29.73;;;;;;;16.67;100.00;100688.41;4813326;29;20016;-83
2021/09/12 01:57:07;;;;;;;65.10;30.73;;;;;;;16.69;100.00;100678.16;4812734;29;20043;-82
2021/09/12 01:59:33;;;;;;;62.38;30.85;;;;;;;16.85;100.00;100701.84;4808610;29;20046;-81
2021/09/12 02:01:59;;;;;;;64.55;31.83;;;;;;;16.86;100.00;100703.50;4770286;30;20032;-81
2021/09/12 02:04:24;;;;;;;55.38;28.23;;;;;;;16.89;100.00;100703.00;4801060;29;20035;-80
2021/09/12 02:06:49;;;;;;;60.13;29.17;;;;;;;16.94;100.00;100715.03;4783956;30;20123;-81
2021/09/12 02:09:15;;;;;;;63.20;31.08;;;;;;;16.71;100.00;100676.00;4789365;30;20050;-82
2021/09/12 02:11:40;;;;;;;68.85;30.38;;;;;;;16.75;100.00;100682.63;4790749;30;20045;-83
2021/09/12 02:14:06;;;;;;;65.03;30.05;;;;;;;16.94;100.00;100707.69;4811215;30;20067;-83
2021/09/12 02:16:31;;;;;;;67.05;31.17;;;;;;;16.88;100.00;100695.91;4812487;30;20043;-84
2021/09/12 02:18:56;;;;;;;72.45;32.85;;;;;;;16.87;100.00;100694.25;4811409;29;20022;-82
2021/09/12 02:21:22;;;;;;;78.72;35.33;;;;;;;16.91;100.00;100692.69;4810933;30;20115;-83
2021/09/12 02:23:47;;;;;;;79.57;34.42;;;;;;;16.94;100.00;100696.00;4796479;30;20085;-83
2021/09/12 02:26:14;;;;;;;77.60;33.15;;;;;;;16.95;100.00;100692.22;4805844;30;20043;-82
2021/09/12 02:28:39;;;;;;;77.25;35.47;;;;;;;16.94;100.00;100696.00;4796293;29;20065;-83
2021/09/12 02:31:05;;;;;;;84.10;36.92;;;;;;;16.94;100.00;100685.13;4797371;30;20032;-83
2021/09/12 02:33:30;;;;;;;84.93;37.13;;;;;;;16.95;100.00;100684.06;4813159;29;20019;-83
2021/09/12 02:35:55;;;;;;;80.20;35.35;;;;;;;16.91;100.00;100681.81;4813191;29;20035;-83
2021/09/12 02:38:21;;;;;;;76.82;35.95;;;;;;;16.96;100.00;100685.72;4797789;29;20038;-82
2021/09/12 02:40:46;;;;;;;79.63;36.10;;;;;;;16.95;100.00;100675.91;4812761;30;20019;-83
2021/09/12 02:43:12;;;;;;;75.18;33.75;;;;;;;16.96;100.00;100672.13;4812574;29;20077;-83
2021/09/12 02:45:38;;;;;;;76.28;34.95;;;;;;;16.97;100.00;100674.59;4812433;29;20023;-84
2021/09/12 02:53:14;;;;;;;63.60;33.08;;;;;;;16.97;100.00;100684.66;5057324;24;20047;-82
2021/09/12 02:55:41;;;;;;;70.00;33.67;;;;;;;16.36;100.00;100587.34;5165739;24;20052;-82
2021/09/12 02:58:06;;;;;;;80.80;34.70;;;;;;;16.65;100.00;100634.34;4827514;29;20085;-81
2021/09/12 03:00:33;;;;;;;70.43;33.00;;;;;;;16.53;100.00;100617.25;4798847;29;20034;-83
2021/09/12 03:02:59;;;;;;;77.63;35.90;;;;;;;16.19;100.00;100559.28;4798698;30;20042;-82
2021/09/12 03:05:30;;;;;;;78.90;36.72;;;;;;;16.53;100.00;100609.09;4810621;29;20019;-82
2021/09/12 03:07:56;;;;;;;74.43;34.75;;;;;;;16.62;100.00;100626.66;4801960;30;20027;-82
2021/09/12 03:10:22;;;;;;;76.18;34.95;;;;;;;16.26;100.00;100564.59;4810498;29;20054;-82
2021/09/12 03:12:51;;;;;;;69.25;34.10;;;;;;;16.79;100.00;100640.31;4811614;29;20027;-82
2021/09/12 03:15:17;;;;;;;73.35;33.90;;;;;;;16.21;100.00;100557.19;4809980;29;20032;-83
2021/09/12 03:17:43;;;;;;;66.65;33.75;;;;;;;16.33;100.00;100573.44;4810721;29;20051;-82
2021/09/12 03:20:10;;;;;;;67.38;33.42;;;;;;;16.95;100.00;100670.47;4811484;29;20049;-82
2021/09/12 03:22:36;;;;;;;72.35;34.60;;;;;;;16.28;100.00;100563.28;4815111;29;20031;-81
2021/09/12 03:25:02;;;;;;;64.68;33.10;;;;;;;16.35;100.00;100577.53;4811639;29;20074;-82
2021/09/12 03:27:28;;;;;;;84.95;34.47;;;;;;;16.30;100.00;100572.00;4795457;30;20027;-82
2021/09/12 03:29:54;;;;;;;68.82;33.20;;;;;;;16.25;100.00;100560.22;4810140;29;20023;-82
2021/09/12 03:32:20;;;;;;;72.00;33.05;;;;;;;16.93;100.00;100667.19;4808768;29;20022;-82
2021/09/12 03:34:46;;;;;;;65.10;31.77;;;;;;;16.53;100.00;100597.44;4778005;30;20036;-82
2021/09/12 03:37:11;;;;;;;68.13;32.40;;;;;;;16.43;100.00;100592.63;4793539;30;20042;-83
2021/09/12 03:39:37;;;;;;;61.65;30.90;;;;;;;16.28;100.00;100566.00;4822160;29;20035;-82
2021/09/12 03:42:03;;;;;;;61.90;30.15;;;;;;;16.20;100.00;100552.81;4829050;29;20026;-83
2021/09/12 03:44:29;;;;;;;60.13;29.35;;;;;;;16.29;100.00;100562.22;4829458;29;20019;-82
2021/09/12 03:46:55;;;;;;;64.53;30.58;;;;;;;16.23;100.00;100551.53;4810956;29;20026;-83
2021/09/12 03:49:21;;;;;;;58.72;29.45;;;;;;;16.77;100.00;100637.00;4795720;30;20064;-82
2021/09/12 03:51:46;;;;;;;60.15;28.73;;;;;;;16.78;100.00;100629.69;4815958;29;20035;-82
2021/09/12 03:54:15;;;;;;;55.55;28.92;;;;;;;16.49;100.00;100588.09;4810539;29;20059;-82
2021/09/12 03:56:41;;;;;;;53.90;26.80;;;;;;;16.27;100.00;100550.78;4839739;29;20145;-83
2021/09/12 03:59:07;;;;;;;46.65;26.13;;;;;;;16.63;100.00;100606.56;4828633;29;20019;-82
2021/09/12 04:01:33;;;;;;;53.53;27.05;;;;;;;16.55;100.00;100595.28;4828919;29;20015;-82
2021/09/12 04:03:59;;;;;;;40.00;23.38;;;;;;;16.55;100.00;100587.94;4810615;29;20052;-82
2021/09/12 04:06:24;;;;;;;39.45;21.70;;;;;;;16.15;100.00;100522.84;4822043;29;20088;-82
2021/09/12 04:08:51;;;;;;;45.60;23.10;;;;;;;16.89;100.00;100648.66;4813485;29;20084;-82
2021/09/12 04:11:17;;;;;;;44.10;23.90;;;;;;;16.39;100.00;100569.72;4804988;29;20043;-83
2021/09/12 04:18:53;;;;;;;37.35;20.42;;;;;;;16.20;100.00;100536.53;5424021;24;20058;-82
2021/09/12 04:29:05;;;;;;;29.05;15.35;;;;;;;16.87;100.00;100641.81;5428738;24;20043;-82
2021/09/12 04:44:27;;;;;;;20.90;11.00;;;;;;;16.49;100.00;100591.66;5321638;24;20087;-82
2021/09/12 04:59:49;;;;;;;18.10;10.57;;;;;;;16.52;100.00;100602.00;4835502;24;20058;-82
2021/09/12 05:02:16;;;;;;;19.10;9.95;;;;;;;16.18;100.00;100541.38;4816512;29;20031;-83
2021/09/12 05:04:41;;;;;;;21.00;10.88;;;;;;;16.57;100.00;100612.16;4794338;30;20007;-82
2021/09/12 05:07:07;;;;;;;19.63;10.52;;;;;;;16.55;100.00;100608.84;4810177;29;20027;-83
2021/09/12 05:09:33;;;;;;;19.10;10.10;;;;;;;16.29;100.00;100573.09;4810321;30;20031;-83
2021/09/12 05:11:59;;;;;;;19.60;10.60;;;;;;;16.18;100.00;100546.78;4798244;29;20022;-83
2021/09/12 05:14:26;;;;;;;18.98;10.07;;;;;;;16.03;100.00;100525.63;4829028;29;20038;-83
2021/09/12 05:16:52;;;;;;;18.52;10.07;;;;;;;16.63;100.00;100613.91;4818795;29;20039;-84
2021/09/12 05:19:18;;;;;;;19.35;10.30;;;;;;;16.21;100.00;100547.13;5003407;24;20078;-83
2021/09/12 05:21:44;;;;;;;20.00;9.60;;;;;;;16.21;100.00;100541.72;4807300;29;20070;-81
2021/09/12 05:24:10;;;;;;;15.95;8.10;;;;;;;16.85;100.00;100650.22;4808711;29;20060;-82
2021/09/12 05:26:51;;;;;;;14.35;7.55;;;;;;;16.83;100.00;100648.81;4778885;30;20043;-81
2021/09/12 05:29:18;;;;;;;11.55;6.47;;;;;;;16.10;100.00;100530.91;4793552;30;20035;-82
2021/09/12 05:31:44;;;;;;;11.73;5.93;;;;;;;16.23;100.00;100552.34;4809478;30;20031;-80
2021/09/12 05:34:10;;;;;;;11.68;5.60;;;;;;;16.17;100.00;100548.69;4795716;30;20026;-82
2021/09/12 05:36:37;;;;;;;12.13;5.50;;;;;;;16.37;100.00;100588.97;4813028;29;20031;-81
2021/09/12 05:39:02;;;;;;;13.55;5.40;;;;;;;16.21;100.00;100568.84;4813657;29;20046;-83
2021/09/12 05:41:29;;;;;;;10.20;4.10;;;;;;;16.09;100.00;100549.09;4795125;30;20091;-83
2021/09/12 05:43:55;;;;;;;7.82;3.38;;;;;;;16.47;100.00;100612.78;4794309;30;20020;-83
2021/09/12 05:48:56;;;;;;;4.85;2.40;;;;;;;16.31;100.00;100605.41;4879055;24;20066;-82
2021/09/12 05:51:22;;;;;;;4.15;1.83;;;;;;;15.91;100.00;100555.50;4811779;30;20062;-82
2021/09/12 05:53:47;;;;;;;6.80;2.10;;;;;;;16.30;100.00;100609.22;4799971;30;20015;-83
2021/09/12 05:56:14;;;;;;;7.10;2.15;;;;;;;16.12;100.00;100583.06;5430749;24;20057;-82
2021/09/12 05:58:40;;;;;;;5.85;2.42;;;;;;;16.07;100.00;100574.81;4849108;29;20025;-81
2021/09/12 06:01:06;;;;;;;6.13;2.20;;;;;;;16.44;100.00;100633.09;5085395;24;20114;-86
2021/09/12 06:11:48;;;;;;;5.25;2.00;;;;;;;16.68;100.00;100654.75;5797997;24;20089;31
2021/09/12 06:14:24;;;;;;;5.95;2.20;;;;;;;16.18;100.00;100585.63;5743760;24;20025;31
2021/09/12 06:16:52;;;;;;;7.25;2.33;;;;;;;16.22;100.00;100572.38;4810672;29;20024;-81
2021/09/12 06:19:17;;;;;;;5.20;2.00;;;;;;;16.18;100.00;100565.81;4799721;29;20019;-85
2021/09/12 06:21:46;;;;;;;4.32;2.40;;;;;;;16.23;100.00;100574.06;4797467;30;20034;-83
2021/09/12 06:26:47;;;;;;;6.25;2.40;;;;;;;16.25;100.00;100558.34;5036254;24;20039;-83
2021/09/12 06:39:33;;;;;;;10.88;2.90;;;;;;;16.25;100.00;100571.91;5376667;24;20084;-83
2021/09/12 06:41:59;;;;;;;11.13;3.42;;;;;;;16.17;100.00;100556.03;4814648;29;20043;-83
2021/09/12 06:44:25;;;;;;;8.30;2.55;;;;;;;16.62;100.00;100609.53;4811954;29;20034;-83
2021/09/12 06:46:51;;;;;;;13.23;3.03;;;;;;;16.37;100.00;100566.44;4811338;29;20039;-82
2021/09/12 06:49:16;;;;;;;14.07;2.65;;;;;;;16.54;100.00;100580.06;4820392;29;20053;-82
2021/09/12 06:51:42;;;;;;;9.48;2.75;;;;;;;16.62;100.00;100590.50;4814969;29;20023;-82
2021/09/12 06:54:08;;;;;;;12.35;2.70;;;;;;;16.30;100.00;100539.44;4830035;29;20106;-82
2021/09/12 06:56:35;;;;;;;12.95;2.70;;;;;;;16.45;100.00;100547.03;4812164;29;20027;-81
2021/09/12 06:59:04;;;;;;;12.27;2.60;;;;;;;16.96;100.00;100625.94;4812783;29;20007;-80
2021/09/12 07:01:30;;;;;;;7.30;2.17;;;;;;;16.53;100.00;100548.53;4799329;29;20045;-82
2021/09/12 07:03:55;;;;;;;10.43;2.50;;;;;;;16.52;100.00;100555.84;4813495;29;20042;-83
2021/09/12 07:09:06;;;;;;;9.40;2.50;;;;;;;16.30;100.00;100516.91;5386286;24;20070;-82
2021/09/12 07:11:32;;;;;;;10.23;2.90;;;;;;;16.24;100.00;100526.81;4805064;29;20103;-82
2021/09/12 07:26:31;;;;;;;10.32;3.60;;;;;;;16.34;100.00;100518.03;5140349;24;21033;-79
2021/09/12 07:36:42;;;;;;;10.63;3.70;;;;;;;16.75;100.00;100538.59;4987692;24;20058;-81
2021/09/12 07:39:09;;;;;;;9.95;3.33;;;;;;;16.68;100.00;100535.19;4846044;29;20069;-83
2021/09/12 07:41:35;;;;;;;10.45;3.60;;;;;;;17.22;100.00;100622.56;4839882;29;20029;-83
2021/09/12 07:44:00;;;;;;;10.40;3.60;;;;;;;17.63;100.00;100683.03;4848620;29;20034;-83
2021/09/12 07:46:26;;;;;;;10.77;3.60;;;;;;;17.68;100.00;100672.25;4831819;29;20022;-84
2021/09/12 07:48:52;;;;;;;13.77;3.50;;;;;;;17.21;100.00;100607.31;4813797;29;20026;-83
2021/09/12 07:51:17;;;;;;;14.27;3.67;;;;;;;17.09;100.00;100573.97;4843578;29;20046;-83
2021/09/12 07:53:44;;;;;;;10.20;4.00;;;;;;;17.28;100.00;100602.50;4832212;29;20064;-83
2021/09/12 08:07:49;;;;;;;10.90;3.72;;;;;;;17.39;100.00;100671.50;5624854;24;20272;-82
2021/09/12 08:41:20;;;;;;;9.70;3.50;;;;;;;17.53;100.00;100628.47;5193785;24;20053;-83
2021/09/12 09:13:47;;;;;;;11.82;3.33;;;;;;;17.77;100.00;100692.53;4321243;24;20233;-80
2021/09/12 09:16:29;;;;;;;9.45;3.40;;;;;;;17.93;100.00;100693.56;4813403;29;20048;-82
2021/09/12 09:19:03;;;;;;;10.10;3.58;;;;;;;17.46;100.00;100603.34;4839663;29;20046;-82
2021/09/12 09:21:41;;;;;;;7.97;3.30;;;;;;;17.76;100.00;100601.06;4815066;29;20026;-81
2021/09/12 09:24:22;;;;;;;7.63;2.85;;;;;;;18.35;100.00;100659.53;4831687;29;20042;-81
2021/09/12 09:26:52;;;;;;;7.32;2.50;;;;;;;18.07;100.00;100605.00;4829677;29;20027;-81
2021/09/12 09:29:45;;;;;;;5.63;2.40;;;;;;;17.69;100.00;100540.53;4829159;29;20060;-80
2021/09/12 09:32:15;;;;;;;5.28;2.13;;;;;;;17.76;100.00;100581.16;4815610;29;20035;-80
2021/09/12 09:34:43;;;;;;;8.80;2.30;;;;;;;17.53;100.00;100546.84;4827713;29;20481;-81
2021/09/12 09:37:12;;;;;;;6.97;2.10;;;;;;;18.11;100.00;100654.31;4829060;29;20035;-80
2021/09/12 09:39:54;;;;;;;6.75;2.17;;;;;;;18.23;100.00;100676.81;4821476;29;20046;-81
2021/09/12 09:42:44;;;;;;;7.40;2.22;;;;;;;18.02;100.00;100636.81;4808379;29;20069;-80
2021/09/12 09:45:18;;;;;;;4.22;1.85;;;;;;;18.27;100.00;100667.06;4822112;29;20064;-80
2021/09/12 09:47:46;;;;;;;;;;;;;;;18.53;100.00;100697.34;4823438;29;20030;-79
2021/09/12 09:50:18;;;;;;;5.00;1.80;;;;;;;18.49;100.00;100668.97;4822903;29;19897;-81
2021/09/12 09:52:54;;;;;;;8.30;2.47;;;;;;;18.88;100.00;100707.03;4820536;29;20022;-80
2021/09/12 09:55:23;;;;;;;5.97;1.77;;;;;;;18.87;100.00;100687.09;4816410;29;20061;-81
2021/09/12 09:57:51;;;;;;;4.55;1.60;;;;;;;19.13;100.00;100703.72;4815647;29;20026;-80
2021/09/12 10:00:18;;;;;;;4.78;1.85;;;;;;;19.09;100.00;100703.44;4810179;29;20038;-81
2021/09/12 10:02:44;;;;;;;5.90;1.40;;;;;;;19.10;100.00;100694.16;4838168;29;20038;-83
2021/09/12 10:05:12;;;;;;;5.93;1.73;;;;;;;19.16;100.00;100705.94;4796949;29;20042;-83
2021/09/12 10:07:39;;;;;;;3.75;1.73;;;;;;;19.16;100.00;100706.75;4806863;29;20069;-82
2021/09/12 10:10:09;;;;;;;5.70;1.70;;;;;;;19.17;100.00;100702.13;4827894;29;20042;-82
2021/09/12 10:12:56;;;;;;;6.63;1.38;;;;;;;18.59;99.18;100584.59;4951552;24;20859;-78
2021/09/12 10:15:28;;;;;;;3.63;1.48;;;;;;;18.72;97.31;100581.47;5110299;24;20069;-78
2021/09/12 10:17:55;;;;;;;6.32;1.90;;;;;;;18.57;96.66;100529.53;4826014;29;20066;-82
2021/09/12 10:20:29;;;;;;;4.20;1.48;;;;;;;19.45;96.93;100649.19;4814395;29;20048;-80
2021/09/12 10:22:59;;;;;;;4.88;1.58;;;;;;;18.71;96.12;100524.50;4830621;29;20041;-81
2021/09/12 10:25:32;;;;;;;4.50;1.70;;;;;;;18.74;96.18;100534.88;4820307;29;20031;-81
2021/09/12 10:28:04;;;;;;;5.63;1.90;;;;;;;19.82;96.01;100702.97;4828927;29;20026;-81
2021/09/12 10:30:37;;;;;;;4.22;1.88;;;;;;;19.68;96.07;100703.41;4826969;29;20031;-81
2021/09/12 10:33:06;;;;;;;6.80;1.80;;;;;;;18.93;96.94;100617.91;4808675;29;20035;-81
2021/09/12 10:35:47;;;;;;;5.18;1.80;;;;;;;19.22;97.56;100707.66;4826324;29;20078;-82
2021/09/12 10:38:22;;;;;;;6.05;2.40;;;;;;;18.26;98.16;100567.38;4829225;29;20022;-84
2021/09/12 10:40:49;;;;;;;7.15;2.10;;;;;;;19.06;98.52;100711.31;4822286;29;20011;-83
2021/09/12 10:43:24;;;;;;;7.35;2.00;;;;;;;18.98;98.81;100715.31;4840923;29;20022;-83
2021/09/12 10:46:04;;;;;;;5.32;2.60;;;;;;;18.94;98.48;100715.03;4829280;29;20029;-83
2021/09/12 10:48:37;;;;;;;8.00;2.50;;;;;;;18.84;97.98;100701.28;4832577;29;20011;-82
2021/09/12 10:51:10;;;;;;;5.63;2.33;;;;;;;17.64;98.55;100543.19;4803659;29;20019;-82
2021/09/12 10:54:03;;;;;;;6.03;2.30;;;;;;;18.73;98.87;100707.69;4809882;29;20053;-82
2021/09/12 11:01:42;;;;;;;7.95;3.33;;;;;;;18.62;97.45;100686.81;5008291;24;20043;-83
2021/09/12 11:04:11;;;;;;;5.38;2.90;;;;;;;18.71;96.98;100661.59;4830449;29;20035;-83
2021/09/12 11:06:39;;;;;;;6.85;3.40;;;;;;;17.95;95.74;100525.38;4815452;29;20038;-84
2021/09/12 11:11:40;;;;;;;6.95;3.40;;;;;;;18.59;94.35;100581.88;5151908;24;20047;-83
2021/09/12 11:14:08;;;;;;;4.38;3.50;;;;;;;18.75;92.25;100627.31;4830443;29;20083;-82
2021/09/12 11:16:33;;;;;;;6.25;3.70;;;;;;;18.13;92.29;100518.75;4802637;29;20010;-82
2021/09/12 11:19:05;;;;;;;5.82;4.00;;;;;;;19.23;92.20;100698.38;4813341;29;20046;-82
2021/09/12 11:21:50;;;;;;;5.35;3.90;;;;;;;19.17;92.33;100694.78;4830727;29;20076;-83
2021/09/12 11:24:26;;;;;;;6.97;4.40;;;;;;;18.76;92.66;100639.84;4828884;29;20037;-83
2021/09/12 11:26:55;;;;;;;6.82;4.25;;;;;;;18.06;92.51;100507.25;5054710;24;20060;-82
2021/09/12 11:29:24;;;;;;;5.28;3.85;;;;;;;19.36;92.77;100697.13;4811098;30;20036;-82
2021/09/12 11:42:18;;;;;;;9.90;6.95;;;;;;;17.84;94.08;100548.91;4968110;24;20055;-82
2021/09/12 11:52:51;;;;;;;12.75;9.13;;;;;;;18.66;94.54;100709.75;5241784;24;20066;-82
2021/09/12 11:55:23;;;;;;;11.68;8.48;;;;;;;17.62;94.03;100520.88;4832287;29;20026;-82
2021/09/12 11:58:07;;;;;;;12.90;9.45;;;;;;;17.73;93.64;100519.91;4831871;29;20014;-82
2021/09/12 12:00:42;;;;;;;14.40;9.30;;;;;;;18.48;92.53;100604.66;4845572;29;20054;-82
2021/09/12 12:03:11;;;;;;;13.88;9.63;;;;;;;18.94;91.99;100660.50;4848177;29;20023;-83
2021/09/12 12:05:38;;;;;;;13.63;9.82;;;;;;;18.23;90.24;100518.84;4833029;29;20021;-80
2021/09/12 12:10:43;;;;;;;13.32;9.82;;;;;;;18.56;88.96;100522.44;5068331;24;20043;-82
2021/09/12 12:20:56;;;;;;;16.45;10.95;;;;;;;18.45;89.02;100567.03;5333526;24;20054;-83
2021/09/12 12:31:15;;;;;;;17.58;11.90;;;;;;;18.82;91.76;100705.34;4829531;29;20049;-82
2021/09/12 12:33:43;;;;;;;16.92;11.93;;;;;;;18.66;92.31;100690.69;5056553;24;20051;-80
2021/09/12 12:36:12;;;;;;;16.27;10.75;;;;;;;17.83;91.66;100552.72;4809339;29;20091;-82
2021/09/12 12:38:40;;;;;;;14.25;9.90;;;;;;;17.81;91.29;100582.09;4810300;29;20035;-81
2021/09/12 12:41:09;;;;;;;15.25;11.02;;;;;;;17.41;91.04;100518.94;4813318;29;20011;-81
2021/09/12 12:43:37;;;;;;;14.15;9.50;;;;;;;17.52;91.24;100534.34;4796666;30;20048;-81
2021/09/12 12:46:03;;;;;;;15.55;9.55;;;;;;;17.45;91.54;100533.66;4794624;30;20042;-80
2021/09/12 12:48:32;;;;;;;13.48;8.57;;;;;;;18.60;91.11;100710.78;4810487;30;21793;-81
2021/09/12 12:51:12;;;;;;;12.23;7.82;;;;;;;17.86;90.63;100581.34;4811219;29;20027;-79
2021/09/12 12:53:40;;;;;;;12.20;7.85;;;;;;;17.99;89.92;100605.47;4811312;29;20024;-81
2021/09/12 12:56:10;;;;;;;10.45;7.00;;;;;;;18.28;89.28;100641.50;4811815;29;20103;-81
2021/09/12 12:58:36;;;;;;;9.02;6.93;;;;;;;18.68;89.78;100700.25;4812068;29;20042;-80
2021/09/12 13:01:08;;;;;;;12.57;7.30;;;;;;;18.71;89.97;100709.84;4810018;29;20086;-84
2021/09/12 13:03:35;;;;;;;10.60;6.78;;;;;;;17.64;89.94;100517.88;4813209;30;20050;-81
2021/09/12 13:06:15;;;;;;;10.80;6.93;;;;;;;18.48;89.54;100640.09;4810178;30;20111;-80
2021/09/12 13:08:42;;;;;;;7.78;6.32;;;;;;;18.97;89.12;100708.22;4809679;30;20080;-83
2021/09/12 13:11:10;;;;;;;9.57;6.70;;;;;;;18.61;88.61;100625.22;4807669;29;20019;-83
2021/09/12 13:13:36;;;;;;;10.68;6.85;;;;;;;18.52;88.62;100609.34;4808713;30;20358;-80
2021/09/12 13:16:02;;;;;;;12.75;7.00;;;;;;;19.17;88.89;100696.66;4796064;30;20036;-83
2021/09/12 13:18:28;;;;;;;10.98;7.00;;;;;;;18.74;88.82;100628.41;4819664;29;20055;-83
2021/09/12 13:20:54;;;;;;;12.02;8.43;;;;;;;18.22;88.93;100521.84;4808209;29;20051;-82
2021/09/12 13:23:21;;;;;;;11.73;7.35;;;;;;;18.64;89.42;100592.84;4807567;29;20043;-82
2021/09/12 13:25:48;;;;;;;10.93;7.40;;;;;;;19.01;89.12;100613.91;4810581;29;20035;-82
2021/09/12 13:28:24;;;;;;;11.60;7.30;;;;;;;18.66;88.33;100519.81;4810711;30;20114;-81
2021/09/12 13:30:50;;;;;;;12.90;6.90;;;;;;;18.67;87.47;100507.00;4811015;30;20064;-82
2021/09/12 13:33:16;;;;;;;9.68;6.75;;;;;;;18.63;87.09;100506.69;4810834;29;20437;-82
2021/09/12 13:35:41;;;;;;;7.82;6.80;;;;;;;18.71;87.89;100519.84;4813360;29;20043;-84
2021/09/12 13:38:07;;;;;;;9.00;6.82;;;;;;;19.23;87.32;100590.06;4811443;30;20077;-83
2021/09/12 13:40:33;;;;;;;11.70;6.95;;;;;;;19.05;86.88;100567.84;4809613;29;20012;-83
2021/09/12 13:43:00;;;;;;;12.85;7.18;;;;;;;19.83;86.86;100688.22;4811313;30;20031;-83
2021/09/12 13:45:26;;;;;;;10.55;7.03;;;;;;;19.29;86.85;100622.84;4809900;29;20034;-83
2021/09/12 13:47:52;;;;;;;11.43;7.32;;;;;;;18.50;87.67;100523.47;4811272;29;20079;-84
2021/09/12 13:50:18;;;;;;;9.95;7.60;;;;;;;19.05;88.67;100625.13;4808362;29;20035;-81
2021/09/12 13:52:44;;;;;;;10.55;6.93;;;;;;;19.46;88.54;100700.75;4808211;29;20023;-81
2021/09/12 13:55:10;;;;;;;10.77;6.30;;;;;;;18.27;87.60;100509.09;4809505;29;20043;-83
2021/09/12 14:00:11;;;;;;;9.27;6.55;;;;;;;18.69;88.78;100581.97;5238386;24;20093;-81
2021/09/12 14:02:37;;;;;;;12.73;6.55;;;;;;;18.80;88.23;100599.25;4818808;29;20037;-82
2021/09/12 14:07:38;;;;;;;9.05;6.20;;;;;;;19.41;88.78;100691.72;5484344;24;19925;-82
2021/09/12 14:10:05;;;;;;;11.43;6.47;;;;;;;19.40;89.20;100690.06;4815494;29;20018;-83
2021/09/12 14:12:31;;;;;;;7.75;6.00;;;;;;;18.51;89.49;100568.72;4816483;29;20066;-82
2021/09/12 14:17:32;;;;;;;10.25;5.75;;;;;;;18.39;89.83;100547.06;5802460;24;20017;-82
2021/09/12 14:22:33;;;;;;;8.85;5.38;;;;;;;18.14;90.65;100539.44;5598743;24;20058;-81
2021/09/12 14:24:59;;;;;;;8.57;5.10;;;;;;;18.90;90.95;100655.78;4810546;29;20043;-80
2021/09/12 14:27:41;;;;;;;8.38;4.47;;;;;;;18.42;90.43;100590.16;4824903;29;20078;-81
2021/09/12 14:30:08;;;;;;;9.43;4.22;;;;;;;18.18;89.83;100551.50;4835341;29;20021;-81
2021/09/12 14:32:34;;;;;;;8.50;4.43;;;;;;;18.22;89.77;100582.59;4823849;29;20047;-80
2021/09/12 14:35:00;;;;;;;6.68;3.80;;;;;;;18.90;89.37;100694.78;4848297;29;20034;-81
2021/09/12 14:37:27;;;;;;;8.07;3.88;;;;;;;17.57;89.13;100488.94;4824621;29;20010;-82
2021/09/12 14:39:52;;;;;;;8.35;4.20;;;;;;;18.26;89.36;100635.47;4818205;29;20027;-80
2021/09/12 14:42:18;;;;;;;7.10;3.80;;;;;;;18.43;90.26;100661.81;4820008;29;20041;-80
2021/09/12 14:52:35;;;;;;;9.02;4.28;;;;;;;18.53;91.69;100705.53;5341352;24;20063;-82
2021/09/12 14:55:03;;;;;;;6.35;3.55;;;;;;;17.80;90.69;100590.50;4799038;29;20047;-82
2021/09/12 14:57:29;;;;;;;7.63;3.60;;;;;;;17.77;90.05;100577.41;4814693;29;20018;-83
2021/09/12 14:59:54;;;;;;;7.53;3.10;;;;;;;17.96;90.48;100641.34;4815483;29;20060;-83
2021/09/12 15:02:20;;;;;;;8.18;3.70;;;;;;;18.41;90.73;100713.00;4800167;29;20046;-82
2021/09/12 15:17:43;;;;;;;7.65;2.90;;;;;;;17.55;91.76;100588.25;4962339;24;20078;-83
2021/09/12 15:20:10;;;;;;;4.80;2.85;;;;;;;17.02;90.93;100508.03;4866956;29;20018;-83
2021/09/12 15:22:36;;;;;;;5.50;2.72;;;;;;;17.01;90.15;100512.66;4867482;29;20048;-82